Flight Track Log - Related Links

Times and Time Zones

All times are in EDT time to prevent confusion due to time zone crossing. See the CSN3233 flight status page for this flight to view local times or setup timezone preferences in your user account.

Time Position Orientation Groundspeed Altitude Reporting Facility
EDT Latitude Longitude Course Direction KTS MPH feet Rate Location/Type
Mon 09:27:00 AM 25.1604 110.1458 121° Southeast  Level Estimated
Mon 09:28:00 AM 25.1025 110.2522 121° Southeast  Level Estimated
Mon 09:29:00 AM 25.0446 110.3586 121° Southeast  Level Estimated
Mon 09:30:00 AM 24.9867 110.4648 121° Southeast  Level Estimated
Mon 09:31:00 AM 24.9286 110.5710 121° Southeast  Level Estimated
Mon 09:32:00 AM 24.8705 110.6771 121° Southeast  Level Estimated
Mon 09:33:00 AM 24.8123 110.7830 121° Southeast  Level Estimated
Mon 09:34:00 AM 24.7540 110.8889 121° Southeast  Level Estimated
Mon 09:35:00 AM 24.6956 110.9946 121° Southeast  Level Estimated
Mon 09:36:00 AM 24.6372 111.1003 121° Southeast  Level Estimated
Mon 09:37:00 AM 24.5787 111.2059 121° Southeast  Level Estimated
Mon 09:38:00 AM 24.5201 111.3113 121° Southeast  Level Estimated
Mon 09:39:00 AM 24.4615 111.4167 121° Southeast  Level Estimated
Mon 09:40:00 AM 24.4028 111.5219 121° Southeast  Level Estimated
Mon 09:41:00 AM 24.3440 111.6271 122° Southeast  Level Estimated
Mon 09:42:00 AM 24.2851 111.7322 122° Southeast  Level Estimated
Mon 09:43:00 AM 24.2262 111.8372 122° Southeast  Level Estimated
Mon 09:44:00 AM 24.1672 111.9420 122° Southeast  Level Estimated
Mon 09:45:00 AM 24.1081 112.0468 122° Southeast  Level Estimated
Mon 09:46:00 AM 24.0489 112.1515 122° Southeast  Level Estimated
Mon 09:47:00 AM 23.9897 112.2561 122° Southeast  Level Estimated
Mon 09:48:00 AM 23.9304 112.3606 122° Southeast  Level Estimated
Mon 09:49:00 AM 23.8711 112.4650 122° Southeast  Level Estimated
Mon 09:50:00 AM 23.8116 112.5693 122° Southeast  Level Estimated
Mon 09:51:00 AM 23.7521 112.6735 122° Southeast  Level Estimated
Mon 09:52:00 AM 23.6926 112.7776 122° Southeast  Level Estimated
Mon 09:53:00 AM 23.6329 112.8816 122° Southeast  Level Estimated
Mon 09:54:00 AM 23.5732 112.9855 122° Southeast  Level Estimated
Mon 09:55:00 AM 23.5134 113.0893 122° Southeast  Level Estimated
Mon 09:56:00 AM 23.4536 113.1930 122° Southeast  Level Estimated
Mon 09:57:00 AM 23.3937 113.2967 122° Southeast  Level Estimated
Mon 09:58:00 AM 23.3924 113.2988 122° Southeast  Level Estimated
Mon 09:59:00 AM 23.3924 113.2988 223° Southwest  Level Estimated
Mon 10:00:00 AM 23.3924 113.2988 223° Southwest  Level Estimated
Mon 10:01:00 AM 23.3924 113.2988 223° Southwest  Level Estimated
Mon 10:02:00 AM 23.3924 113.2988 223° Southwest  Level Estimated
Mon 10:03:00 AM 23.3924 113.2988 223° Southwest  Level Estimated
Mon 10:04:00 AM 23.3924 113.2988 223° Southwest  Level Estimated
Mon 10:05:00 AM 23.3924 113.2988 223° Southwest  Level Estimated
Mon 10:06:00 AM 23.3924 113.2988 223° Southwest  Level Estimated
Mon 10:07:00 AM 23.3924 113.2988 223° Southwest  Level Estimated
Mon 10:08:00 AM 23.3924 113.2988 223° Southwest  Level Estimated
Mon 10:09:00 AM 23.3924 113.2988 223° Southwest  Level Estimated
Mon 10:10:00 AM 23.3924 113.2988 223° Southwest  Level Estimated
Mon 10:11:00 AM 23.3924 113.2988 223° Southwest  Level Estimated
Mon 10:12:00 AM 23.3924 113.2988 223° Southwest  Level Estimated

Login

Don't have an account? Register now (free) for customized features, flight alerts, and more!